sensor_id;sensor_type;location;lat;lon;timestamp;P1;durP1;ratioP1;P2;durP2;ratioP2
18857;SDS011;9558;50.178;8.370;2024-03-23T00:55:12;24.05;;;8.80;;
18857;SDS011;9558;50.178;8.370;2024-03-23T00:57:58;22.45;;;7.05;;
18857;SDS011;9558;50.178;8.370;2024-03-23T01:00:45;19.05;;;7.38;;
18857;SDS011;9558;50.178;8.370;2024-03-23T01:03:31;16.42;;;7.25;;
18857;SDS011;9558;50.178;8.370;2024-03-23T01:06:18;22.80;;;7.68;;
18857;SDS011;9558;50.178;8.370;2024-03-23T01:09:04;19.63;;;7.82;;
18857;SDS011;9558;50.178;8.370;2024-03-23T01:11:53;20.10;;;7.70;;
18857;SDS011;9558;50.178;8.370;2024-03-23T01:14:39;22.05;;;7.75;;
18857;SDS011;9558;50.178;8.370;2024-03-23T01:17:25;20.80;;;8.50;;
18857;SDS011;9558;50.178;8.370;2024-03-23T01:20:11;17.40;;;7.40;;
18857;SDS011;9558;50.178;8.370;2024-03-23T01:22:58;21.45;;;8.13;;
18857;SDS011;9558;50.178;8.370;2024-03-23T01:25:51;21.73;;;8.38;;
18857;SDS011;9558;50.178;8.370;2024-03-23T01:28:39;19.02;;;8.13;;
18857;SDS011;9558;50.178;8.370;2024-03-23T01:31:25;16.38;;;6.50;;
18857;SDS011;9558;50.178;8.370;2024-03-23T01:34:12;17.40;;;7.35;;
18857;SDS011;9558;50.178;8.370;2024-03-23T01:36:58;18.40;;;6.75;;
18857;SDS011;9558;50.178;8.370;2024-03-23T01:39:45;17.42;;;7.50;;
18857;SDS011;9558;50.178;8.370;2024-03-23T01:42:31;19.88;;;6.78;;
18857;SDS011;9558;50.178;8.370;2024-03-23T01:45:19;15.35;;;7.40;;
18857;SDS011;9558;50.178;8.370;2024-03-23T01:48:06;21.42;;;8.68;;
18857;SDS011;9558;50.178;8.370;2024-03-23T01:50:54;27.15;;;8.80;;
18857;SDS011;9558;50.178;8.370;2024-03-23T01:53:40;18.77;;;7.18;;
18857;SDS011;9558;50.178;8.370;2024-03-23T01:56:27;26.17;;;8.07;;
18857;SDS011;9558;50.178;8.370;2024-03-23T01:59:14;24.10;;;9.15;;
18857;SDS011;9558;50.178;8.370;2024-03-23T02:02:02;22.63;;;8.10;;
18857;SDS011;9558;50.178;8.370;2024-03-23T02:04:48;18.42;;;7.45;;
18857;SDS011;9558;50.178;8.370;2024-03-23T02:07:35;22.45;;;8.77;;
18857;SDS011;9558;50.178;8.370;2024-03-23T02:10:21;22.40;;;8.02;;
18857;SDS011;9558;50.178;8.370;2024-03-23T02:13:08;19.65;;;8.15;;
18857;SDS011;9558;50.178;8.370;2024-03-23T02:15:54;19.63;;;7.70;;
18857;SDS011;9558;50.178;8.370;2024-03-23T02:18:43;16.40;;;6.85;;
18857;SDS011;9558;50.178;8.370;2024-03-23T02:21:29;18.92;;;7.80;;
18857;SDS011;9558;50.178;8.370;2024-03-23T02:24:18;19.25;;;6.18;;
18857;SDS011;9558;50.178;8.370;2024-03-23T02:27:04;21.25;;;8.25;;
18857;SDS011;9558;50.178;8.370;2024-03-23T02:29:51;24.65;;;7.57;;
18857;SDS011;9558;50.178;8.370;2024-03-23T02:32:37;17.85;;;6.63;;
18857;SDS011;9558;50.178;8.370;2024-03-23T02:35:24;18.15;;;7.45;;
18857;SDS011;9558;50.178;8.370;2024-03-23T02:38:10;17.92;;;6.90;;
18857;SDS011;9558;50.178;8.370;2024-03-23T02:41:02;17.83;;;6.88;;
18857;SDS011;9558;50.178;8.370;2024-03-23T02:43:48;18.88;;;7.30;;
18857;SDS011;9558;50.178;8.370;2024-03-23T02:46:35;19.50;;;7.00;;
18857;SDS011;9558;50.178;8.370;2024-03-23T02:49:23;16.55;;;6.82;;
18857;SDS011;9558;50.178;8.370;2024-03-23T02:52:09;15.98;;;6.32;;
18857;SDS011;9558;50.178;8.370;2024-03-23T02:54:56;14.10;;;5.90;;
18857;SDS011;9558;50.178;8.370;2024-03-23T02:57:44;13.82;;;6.15;;
18857;SDS011;9558;50.178;8.370;2024-03-23T03:00:31;17.73;;;5.43;;
18857;SDS011;9558;50.178;8.370;2024-03-23T03:03:17;16.33;;;6.95;;
18857;SDS011;9558;50.178;8.370;2024-03-23T03:06:04;19.67;;;7.45;;
18857;SDS011;9558;50.178;8.370;2024-03-23T03:08:50;20.50;;;7.75;;
18857;SDS011;9558;50.178;8.370;2024-03-23T03:11:36;19.90;;;7.90;;
18857;SDS011;9558;50.178;8.370;2024-03-23T03:14:24;22.25;;;9.10;;
18857;SDS011;9558;50.178;8.370;2024-03-23T03:17:11;16.35;;;5.63;;
18857;SDS011;9558;50.178;8.370;2024-03-23T03:19:57;13.88;;;5.78;;
18857;SDS011;9558;50.178;8.370;2024-03-23T03:22:44;21.83;;;7.43;;
18857;SDS011;9558;50.178;8.370;2024-03-23T03:25:29;29.40;;;9.02;;
18857;SDS011;9558;50.178;8.370;2024-03-23T03:28:16;33.20;;;11.00;;
18857;SDS011;9558;50.178;8.370;2024-03-23T03:31:04;24.85;;;9.50;;
18857;SDS011;9558;50.178;8.370;2024-03-23T03:33:51;26.17;;;9.60;;
18857;SDS011;9558;50.178;8.370;2024-03-23T03:36:37;29.17;;;9.05;;
18857;SDS011;9558;50.178;8.370;2024-03-23T03:39:24;28.02;;;10.35;;
18857;SDS011;9558;50.178;8.370;2024-03-23T03:42:10;23.30;;;8.10;;
18857;SDS011;9558;50.178;8.370;2024-03-23T03:44:57;16.90;;;5.85;;
18857;SDS011;9558;50.178;8.370;2024-03-23T03:47:45;9.30;;;3.65;;
18857;SDS011;9558;50.178;8.370;2024-03-23T03:50:31;7.25;;;3.22;;
18857;SDS011;9558;50.178;8.370;2024-03-23T03:53:18;7.00;;;2.85;;
18857;SDS011;9558;50.178;8.370;2024-03-23T03:56:04;3.22;;;1.42;;
18857;SDS011;9558;50.178;8.370;2024-03-23T03:58:52;1.60;;;0.63;;
18857;SDS011;9558;50.178;8.370;2024-03-23T04:01:38;1.90;;;0.90;;
18857;SDS011;9558;50.178;8.370;2024-03-23T04:04:26;2.28;;;0.80;;
18857;SDS011;9558;50.178;8.370;2024-03-23T04:07:12;0.90;;;0.32;;
18857;SDS011;9558;50.178;8.370;2024-03-23T04:09:59;0.52;;;0.35;;
18857;SDS011;9558;50.178;8.370;2024-03-23T04:12:45;0.77;;;0.40;;
18857;SDS011;9558;50.178;8.370;2024-03-23T04:15:34;0.73;;;0.35;;
18857;SDS011;9558;50.178;8.370;2024-03-23T04:18:20;1.05;;;0.60;;
18857;SDS011;9558;50.178;8.370;2024-03-23T04:21:09;0.75;;;0.40;;
18857;SDS011;9558;50.178;8.370;2024-03-23T04:23:54;0.40;;;0.40;;
18857;SDS011;9558;50.178;8.370;2024-03-23T04:26:41;0.35;;;0.30;;
18857;SDS011;9558;50.178;8.370;2024-03-23T04:29:27;1.45;;;0.45;;
18857;SDS011;9558;50.178;8.370;2024-03-23T04:32:15;5.53;;;0.52;;
18857;SDS011;9558;50.178;8.370;2024-03-23T04:35:01;0.22;;;0.22;;
18857;SDS011;9558;50.178;8.370;2024-03-23T04:37:52;0.40;;;0.22;;
18857;SDS011;9558;50.178;8.370;2024-03-23T04:40:41;1.35;;;0.55;;
18857;SDS011;9558;50.178;8.370;2024-03-23T04:43:28;0.40;;;0.30;;
18857;SDS011;9558;50.178;8.370;2024-03-23T04:46:15;1.23;;;0.60;;
18857;SDS011;9558;50.178;8.370;2024-03-23T04:49:02;0.65;;;0.45;;
18857;SDS011;9558;50.178;8.370;2024-03-23T04:51:49;0.50;;;0.38;;
18857;SDS011;9558;50.178;8.370;2024-03-23T04:54:38;1.48;;;0.70;;
18857;SDS011;9558;50.178;8.370;2024-03-23T04:57:25;0.43;;;0.40;;
18857;SDS011;9558;50.178;8.370;2024-03-23T05:00:13;0.70;;;0.60;;
18857;SDS011;9558;50.178;8.370;2024-03-23T05:03:02;1.38;;;0.47;;
18857;SDS011;9558;50.178;8.370;2024-03-23T05:05:50;1.30;;;0.70;;
18857;SDS011;9558;50.178;8.370;2024-03-23T05:08:36;1.42;;;0.70;;
18857;SDS011;9558;50.178;8.370;2024-03-23T05:11:24;0.90;;;0.80;;
18857;SDS011;9558;50.178;8.370;2024-03-23T05:14:10;1.10;;;0.85;;
18857;SDS011;9558;50.178;8.370;2024-03-23T05:16:58;1.42;;;0.85;;
18857;SDS011;9558;50.178;8.370;2024-03-23T05:19:44;0.88;;;0.68;;
18857;SDS011;9558;50.178;8.370;2024-03-23T05:22:31;2.20;;;0.90;;
18857;SDS011;9558;50.178;8.370;2024-03-23T05:25:17;1.02;;;0.77;;
18857;SDS011;9558;50.178;8.370;2024-03-23T05:28:05;0.80;;;0.60;;
18857;SDS011;9558;50.178;8.370;2024-03-23T05:30:52;2.20;;;1.00;;
18857;SDS011;9558;50.178;8.370;2024-03-23T05:33:39;0.88;;;0.60;;
18857;SDS011;9558;50.178;8.370;2024-03-23T05:36:26;0.98;;;0.52;;
18857;SDS011;9558;50.178;8.370;2024-03-23T05:39:12;0.85;;;0.52;;
18857;SDS011;9558;50.178;8.370;2024-03-23T05:42:01;0.70;;;0.60;;
18857;SDS011;9558;50.178;8.370;2024-03-23T05:44:49;2.58;;;0.70;;
18857;SDS011;9558;50.178;8.370;2024-03-23T05:47:36;0.70;;;0.45;;
18857;SDS011;9558;50.178;8.370;2024-03-23T05:50:22;1.25;;;0.85;;
18857;SDS011;9558;50.178;8.370;2024-03-23T05:53:09;1.00;;;0.60;;
18857;SDS011;9558;50.178;8.370;2024-03-23T05:56:00;2.67;;;0.80;;
18857;SDS011;9558;50.178;8.370;2024-03-23T05:58:49;0.88;;;0.60;;
18857;SDS011;9558;50.178;8.370;2024-03-23T06:01:39;0.73;;;0.65;;
18857;SDS011;9558;50.178;8.370;2024-03-23T06:04:26;0.73;;;0.73;;
18857;SDS011;9558;50.178;8.370;2024-03-23T06:07:15;0.90;;;0.40;;
18857;SDS011;9558;50.178;8.370;2024-03-23T06:10:02;0.43;;;0.43;;
18857;SDS011;9558;50.178;8.370;2024-03-23T06:12:48;0.95;;;0.60;;
18857;SDS011;9558;50.178;8.370;2024-03-23T06:15:37;0.90;;;0.57;;
18857;SDS011;9558;50.178;8.370;2024-03-23T06:18:25;0.50;;;0.50;;
18857;SDS011;9558;50.178;8.370;2024-03-23T06:21:15;1.58;;;0.52;;
18857;SDS011;9558;50.178;8.370;2024-03-23T06:24:01;3.80;;;0.70;;
18857;SDS011;9558;50.178;8.370;2024-03-23T06:26:48;3.80;;;0.45;;
18857;SDS011;9558;50.178;8.370;2024-03-23T06:29:34;0.95;;;0.55;;
18857;SDS011;9558;50.178;8.370;2024-03-23T06:32:22;0.52;;;0.50;;
18857;SDS011;9558;50.178;8.370;2024-03-23T06:35:09;2.13;;;0.70;;
18857;SDS011;9558;50.178;8.370;2024-03-23T06:37:56;1.50;;;0.43;;
18857;SDS011;9558;50.178;8.370;2024-03-23T06:40:43;0.63;;;0.30;;
18857;SDS011;9558;50.178;8.370;2024-03-23T06:43:32;0.63;;;0.28;;
18857;SDS011;9558;50.178;8.370;2024-03-23T06:46:19;6.13;;;0.90;;
18857;SDS011;9558;50.178;8.370;2024-03-23T06:49:06;1.13;;;0.50;;
18857;SDS011;9558;50.178;8.370;2024-03-23T06:51:54;1.55;;;0.93;;
18857;SDS011;9558;50.178;8.370;2024-03-23T06:54:40;0.80;;;0.40;;
18857;SDS011;9558;50.178;8.370;2024-03-23T06:57:27;1.17;;;0.65;;
18857;SDS011;9558;50.178;8.370;2024-03-23T07:00:13;3.78;;;0.68;;
18857;SDS011;9558;50.178;8.370;2024-03-23T07:03:01;7.88;;;1.00;;
18857;SDS011;9558;50.178;8.370;2024-03-23T07:05:49;1.25;;;0.88;;
18857;SDS011;9558;50.178;8.370;2024-03-23T07:08:37;2.95;;;0.98;;
18857;SDS011;9558;50.178;8.370;2024-03-23T07:11:23;8.38;;;1.33;;
18857;SDS011;9558;50.178;8.370;2024-03-23T07:14:11;4.28;;;1.00;;
18857;SDS011;9558;50.178;8.370;2024-03-23T07:16:58;3.83;;;0.80;;
18857;SDS011;9558;50.178;8.370;2024-03-23T07:19:47;4.60;;;0.85;;
18857;SDS011;9558;50.178;8.370;2024-03-23T07:22:33;4.43;;;1.48;;
18857;SDS011;9558;50.178;8.370;2024-03-23T07:25:24;3.03;;;0.90;;
18857;SDS011;9558;50.178;8.370;2024-03-23T07:28:12;9.30;;;2.05;;
18857;SDS011;9558;50.178;8.370;2024-03-23T07:31:04;3.55;;;1.77;;
18857;SDS011;9558;50.178;8.370;2024-03-23T07:33:52;6.57;;;2.08;;
18857;SDS011;9558;50.178;8.370;2024-03-23T07:36:38;4.70;;;1.80;;
18857;SDS011;9558;50.178;8.370;2024-03-23T07:39:25;5.60;;;1.92;;
18857;SDS011;9558;50.178;8.370;2024-03-23T07:42:14;5.55;;;2.40;;
18857;SDS011;9558;50.178;8.370;2024-03-23T07:45:01;8.48;;;2.28;;
18857;SDS011;9558;50.178;8.370;2024-03-23T07:47:48;5.70;;;2.00;;
18857;SDS011;9558;50.178;8.370;2024-03-23T07:50:34;2.80;;;1.73;;
18857;SDS011;9558;50.178;8.370;2024-03-23T07:53:21;4.22;;;2.00;;
18857;SDS011;9558;50.178;8.370;2024-03-23T07:56:07;3.42;;;1.80;;
18857;SDS011;9558;50.178;8.370;2024-03-23T07:58:57;6.63;;;2.33;;
18857;SDS011;9558;50.178;8.370;2024-03-23T08:01:43;7.68;;;2.33;;
18857;SDS011;9558;50.178;8.370;2024-03-23T08:04:30;1.83;;;1.63;;
18857;SDS011;9558;50.178;8.370;2024-03-23T08:07:16;5.35;;;1.60;;
18857;SDS011;9558;50.178;8.370;2024-03-23T08:10:03;9.93;;;2.00;;
18857;SDS011;9558;50.178;8.370;2024-03-23T08:15:37;5.80;;;2.05;;
18857;SDS011;9558;50.178;8.370;2024-03-23T08:18:26;2.72;;;1.63;;
18857;SDS011;9558;50.178;8.370;2024-03-23T08:21:13;5.32;;;1.77;;
18857;SDS011;9558;50.178;8.370;2024-03-23T08:23:59;6.57;;;2.10;;
18857;SDS011;9558;50.178;8.370;2024-03-23T08:26:46;4.20;;;1.70;;
18857;SDS011;9558;50.178;8.370;2024-03-23T08:29:32;3.50;;;1.48;;
18857;SDS011;9558;50.178;8.370;2024-03-23T08:32:21;6.95;;;2.10;;
18857;SDS011;9558;50.178;8.370;2024-03-23T08:35:08;6.28;;;2.05;;
18857;SDS011;9558;50.178;8.370;2024-03-23T08:37:54;4.00;;;1.52;;
18857;SDS011;9558;50.178;8.370;2024-03-23T08:40:41;8.05;;;1.88;;
18857;SDS011;9558;50.178;8.370;2024-03-23T08:43:28;5.82;;;1.52;;
18857;SDS011;9558;50.178;8.370;2024-03-23T08:46:16;6.00;;;1.67;;
18857;SDS011;9558;50.178;8.370;2024-03-23T08:49:03;7.85;;;2.08;;
18857;SDS011;9558;50.178;8.370;2024-03-23T08:51:50;4.53;;;1.55;;
18857;SDS011;9558;50.178;8.370;2024-03-23T08:57:24;5.82;;;2.17;;
18857;SDS011;9558;50.178;8.370;2024-03-23T09:00:10;5.00;;;2.22;;
18857;SDS011;9558;50.178;8.370;2024-03-23T09:02:58;6.72;;;2.03;;
18857;SDS011;9558;50.178;8.370;2024-03-23T09:05:45;6.18;;;1.90;;
18857;SDS011;9558;50.178;8.370;2024-03-23T09:08:32;5.60;;;1.65;;
18857;SDS011;9558;50.178;8.370;2024-03-23T09:11:19;6.95;;;1.85;;
18857;SDS011;9558;50.178;8.370;2024-03-23T09:14:07;4.75;;;2.10;;
18857;SDS011;9558;50.178;8.370;2024-03-23T09:16:54;3.97;;;1.60;;
18857;SDS011;9558;50.178;8.370;2024-03-23T09:19:41;5.30;;;1.70;;
18857;SDS011;9558;50.178;8.370;2024-03-23T09:22:28;5.70;;;1.77;;
18857;SDS011;9558;50.178;8.370;2024-03-23T09:25:15;4.68;;;1.50;;
18857;SDS011;9558;50.178;8.370;2024-03-23T09:28:01;4.93;;;1.42;;
18857;SDS011;9558;50.178;8.370;2024-03-23T09:30:48;6.82;;;1.42;;
18857;SDS011;9558;50.178;8.370;2024-03-23T09:33:34;4.50;;;1.63;;
18857;SDS011;9558;50.178;8.370;2024-03-23T09:36:22;2.95;;;1.25;;
18857;SDS011;9558;50.178;8.370;2024-03-23T09:39:09;6.53;;;1.33;;
18857;SDS011;9558;50.178;8.370;2024-03-23T09:41:56;2.40;;;1.20;;
18857;SDS011;9558;50.178;8.370;2024-03-23T09:47:30;3.67;;;0.90;;
18857;SDS011;9558;50.178;8.370;2024-03-23T09:50:17;4.43;;;0.90;;
18857;SDS011;9558;50.178;8.370;2024-03-23T09:55:52;8.55;;;0.98;;
18857;SDS011;9558;50.178;8.370;2024-03-23T09:58:40;3.97;;;0.95;;
18857;SDS011;9558;50.178;8.370;2024-03-23T10:01:29;2.35;;;1.20;;
18857;SDS011;9558;50.178;8.370;2024-03-23T10:07:25;3.80;;;0.77;;
18857;SDS011;9558;50.178;8.370;2024-03-23T10:10:15;7.25;;;1.13;;
18857;SDS011;9558;50.178;8.370;2024-03-23T10:13:03;3.80;;;1.10;;
18857;SDS011;9558;50.178;8.370;2024-03-23T10:15:54;4.93;;;0.80;;
18857;SDS011;9558;50.178;8.370;2024-03-23T10:18:42;5.35;;;0.57;;
18857;SDS011;9558;50.178;8.370;2024-03-23T10:21:29;1.20;;;0.60;;
18857;SDS011;9558;50.178;8.370;2024-03-23T10:24:15;5.30;;;1.40;;
18857;SDS011;9558;50.178;8.370;2024-03-23T10:27:02;3.95;;;1.02;;
18857;SDS011;9558;50.178;8.370;2024-03-23T10:29:50;3.03;;;0.80;;
18857;SDS011;9558;50.178;8.370;2024-03-23T10:32:37;2.85;;;0.63;;
18857;SDS011;9558;50.178;8.370;2024-03-23T10:38:10;1.70;;;0.63;;
18857;SDS011;9558;50.178;8.370;2024-03-23T10:40:57;1.67;;;0.47;;
18857;SDS011;9558;50.178;8.370;2024-03-23T10:43:47;2.10;;;0.63;;
18857;SDS011;9558;50.178;8.370;2024-03-23T10:46:36;1.50;;;0.50;;
18857;SDS011;9558;50.178;8.370;2024-03-23T10:49:23;4.55;;;0.70;;
18857;SDS011;9558;50.178;8.370;2024-03-23T10:52:11;1.58;;;0.52;;
18857;SDS011;9558;50.178;8.370;2024-03-23T10:54:58;0.85;;;0.47;;
18857;SDS011;9558;50.178;8.370;2024-03-23T10:57:48;3.40;;;0.70;;
18857;SDS011;9558;50.178;8.370;2024-03-23T11:00:38;2.08;;;0.50;;
18857;SDS011;9558;50.178;8.370;2024-03-23T11:03:32;3.80;;;0.98;;
18857;SDS011;9558;50.178;8.370;2024-03-23T11:06:33;2.00;;;0.80;;
18857;SDS011;9558;50.178;8.370;2024-03-23T11:09:40;6.40;;;0.90;;
18857;SDS011;9558;50.178;8.370;2024-03-23T11:12:30;1.20;;;0.73;;
18857;SDS011;9558;50.178;8.370;2024-03-23T11:15:18;4.55;;;1.10;;
18857;SDS011;9558;50.178;8.370;2024-03-23T11:18:05;4.18;;;1.20;;
18857;SDS011;9558;50.178;8.370;2024-03-23T11:20:55;3.08;;;0.95;;
18857;SDS011;9558;50.178;8.370;2024-03-23T11:23:41;2.60;;;1.02;;
18857;SDS011;9558;50.178;8.370;2024-03-23T11:26:28;5.80;;;1.00;;
18857;SDS011;9558;50.178;8.370;2024-03-23T11:29:14;2.25;;;1.08;;
18857;SDS011;9558;50.178;8.370;2024-03-23T11:32:03;3.45;;;1.10;;
18857;SDS011;9558;50.178;8.370;2024-03-23T11:34:50;1.25;;;0.85;;
18857;SDS011;9558;50.178;8.370;2024-03-23T11:37:38;1.98;;;0.80;;
18857;SDS011;9558;50.178;8.370;2024-03-23T11:40:24;6.28;;;1.20;;
18857;SDS011;9558;50.178;8.370;2024-03-23T11:43:12;2.80;;;0.85;;
18857;SDS011;9558;50.178;8.370;2024-03-23T11:45:49;7.63;;;1.23;;
18857;SDS011;9558;50.178;8.370;2024-03-23T11:48:38;2.08;;;0.90;;
18857;SDS011;9558;50.178;8.370;2024-03-23T11:51:24;3.78;;;1.17;;
18857;SDS011;9558;50.178;8.370;2024-03-23T11:54:13;2.17;;;1.00;;
18857;SDS011;9558;50.178;8.370;2024-03-23T11:57:00;3.38;;;1.02;;
18857;SDS011;9558;50.178;8.370;2024-03-23T11:59:49;1.48;;;0.82;;
18857;SDS011;9558;50.178;8.370;2024-03-23T12:02:35;1.77;;;0.80;;
18857;SDS011;9558;50.178;8.370;2024-03-23T12:05:22;6.32;;;1.15;;
18857;SDS011;9558;50.178;8.370;2024-03-23T12:08:21;3.25;;;0.70;;
18857;SDS011;9558;50.178;8.370;2024-03-23T12:11:10;1.20;;;0.60;;
18857;SDS011;9558;50.178;8.370;2024-03-23T12:13:59;2.72;;;0.77;;
18857;SDS011;9558;50.178;8.370;2024-03-23T12:16:45;4.30;;;0.90;;
18857;SDS011;9558;50.178;8.370;2024-03-23T12:19:32;1.63;;;0.60;;
18857;SDS011;9558;50.178;8.370;2024-03-23T12:22:20;2.00;;;0.93;;
18857;SDS011;9558;50.178;8.370;2024-03-23T12:25:07;2.67;;;0.70;;
18857;SDS011;9558;50.178;8.370;2024-03-23T12:27:55;0.73;;;0.55;;
18857;SDS011;9558;50.178;8.370;2024-03-23T12:30:44;1.00;;;0.60;;
18857;SDS011;9558;50.178;8.370;2024-03-23T12:33:32;3.63;;;0.63;;
18857;SDS011;9558;50.178;8.370;2024-03-23T12:36:19;2.60;;;0.68;;
18857;SDS011;9558;50.178;8.370;2024-03-23T12:39:05;2.17;;;0.55;;
18857;SDS011;9558;50.178;8.370;2024-03-23T12:41:52;1.85;;;0.55;;
18857;SDS011;9558;50.178;8.370;2024-03-23T12:44:39;4.00;;;0.60;;
18857;SDS011;9558;50.178;8.370;2024-03-23T12:47:27;2.85;;;0.80;;
18857;SDS011;9558;50.178;8.370;2024-03-23T12:50:13;1.42;;;0.60;;
18857;SDS011;9558;50.178;8.370;2024-03-23T12:53:00;1.77;;;0.32;;
18857;SDS011;9558;50.178;8.370;2024-03-23T12:55:46;0.57;;;0.20;;
18857;SDS011;9558;50.178;8.370;2024-03-23T12:58:33;2.03;;;0.22;;
18857;SDS011;9558;50.178;8.370;2024-03-23T13:01:20;2.75;;;0.38;;
18857;SDS011;9558;50.178;8.370;2024-03-23T13:04:07;0.85;;;0.17;;
18857;SDS011;9558;50.178;8.370;2024-03-23T13:06:54;3.15;;;0.40;;
18857;SDS011;9558;50.178;8.370;2024-03-23T13:09:41;0.15;;;0.10;;
18857;SDS011;9558;50.178;8.370;2024-03-23T13:12:27;3.50;;;0.30;;
18857;SDS011;9558;50.178;8.370;2024-03-23T13:15:14;0.50;;;0.40;;
18857;SDS011;9558;50.178;8.370;2024-03-23T13:18:04;0.28;;;0.20;;
18857;SDS011;9558;50.178;8.370;2024-03-23T13:20:51;0.65;;;0.20;;
18857;SDS011;9558;50.178;8.370;2024-03-23T13:23:37;0.10;;;0.10;;
18857;SDS011;9558;50.178;8.370;2024-03-23T13:26:27;0.60;;;0.30;;
18857;SDS011;9558;50.178;8.370;2024-03-23T13:29:13;0.20;;;0.20;;
18857;SDS011;9558;50.178;8.370;2024-03-23T13:32:00;0.20;;;0.20;;
18857;SDS011;9558;50.178;8.370;2024-03-23T13:34:48;0.17;;;0.10;;
18857;SDS011;9558;50.178;8.370;2024-03-23T13:37:36;0.50;;;0.10;;
18857;SDS011;9558;50.178;8.370;2024-03-23T13:40:21;1.30;;;0.20;;
18857;SDS011;9558;50.178;8.370;2024-03-23T13:43:09;0.65;;;0.20;;
18857;SDS011;9558;50.178;8.370;2024-03-23T13:45:47;0.40;;;0.30;;
18857;SDS011;9558;50.178;8.370;2024-03-23T13:48:35;0.13;;;0.13;;
18857;SDS011;9558;50.178;8.370;2024-03-23T13:51:24;0.10;;;0.10;;
18857;SDS011;9558;50.178;8.370;2024-03-23T13:54:12;0.75;;;0.20;;
18857;SDS011;9558;50.178;8.370;2024-03-23T13:56:59;3.13;;;0.20;;
18857;SDS011;9558;50.178;8.370;2024-03-23T13:59:46;1.70;;;0.40;;
18857;SDS011;9558;50.178;8.370;2024-03-23T14:02:34;3.03;;;0.20;;
18857;SDS011;9558;50.178;8.370;2024-03-23T14:05:20;0.10;;;0.10;;
18857;SDS011;9558;50.178;8.370;2024-03-23T14:08:08;0.60;;;0.10;;
18857;SDS011;9558;50.178;8.370;2024-03-23T14:10:55;2.58;;;0.20;;
18857;SDS011;9558;50.178;8.370;2024-03-23T14:13:42;0.05;;;0.05;;
18857;SDS011;9558;50.178;8.370;2024-03-23T14:16:29;0.88;;;0.20;;
18857;SDS011;9558;50.178;8.370;2024-03-23T14:19:16;1.42;;;0.30;;
18857;SDS011;9558;50.178;8.370;2024-03-23T14:22:02;0.30;;;0.20;;
18857;SDS011;9558;50.178;8.370;2024-03-23T14:24:51;0.10;;;0.10;;
18857;SDS011;9558;50.178;8.370;2024-03-23T14:27:37;0.00;;;0.00;;
18857;SDS011;9558;50.178;8.370;2024-03-23T14:30:24;0.22;;;0.10;;
18857;SDS011;9558;50.178;8.370;2024-03-23T14:33:10;0.40;;;0.20;;
18857;SDS011;9558;50.178;8.370;2024-03-23T14:35:58;1.17;;;0.10;;
18857;SDS011;9558;50.178;8.370;2024-03-23T14:38:46;0.20;;;0.20;;
18857;SDS011;9558;50.178;8.370;2024-03-23T14:41:35;0.10;;;0.10;;
18857;SDS011;9558;50.178;8.370;2024-03-23T14:44:21;0.10;;;0.10;;
18857;SDS011;9558;50.178;8.370;2024-03-23T14:47:08;0.55;;;0.20;;
18857;SDS011;9558;50.178;8.370;2024-03-23T14:49:57;2.25;;;0.25;;
18857;SDS011;9558;50.178;8.370;2024-03-23T14:52:48;0.25;;;0.10;;
18857;SDS011;9558;50.178;8.370;2024-03-23T14:55:36;3.63;;;0.63;;
18857;SDS011;9558;50.178;8.370;2024-03-23T14:58:23;2.47;;;0.22;;
18857;SDS011;9558;50.178;8.370;2024-03-23T15:01:11;2.35;;;0.20;;
18857;SDS011;9558;50.178;8.370;2024-03-23T15:03:58;2.03;;;0.17;;
18857;SDS011;9558;50.178;8.370;2024-03-23T15:06:45;1.00;;;0.30;;
18857;SDS011;9558;50.178;8.370;2024-03-23T15:09:34;4.43;;;0.38;;
18857;SDS011;9558;50.178;8.370;2024-03-23T15:12:20;4.18;;;0.40;;
18857;SDS011;9558;50.178;8.370;2024-03-23T15:15:09;0.40;;;0.10;;
18857;SDS011;9558;50.178;8.370;2024-03-23T15:17:57;0.20;;;0.20;;
18857;SDS011;9558;50.178;8.370;2024-03-23T15:20:51;0.60;;;0.15;;
18857;SDS011;9558;50.178;8.370;2024-03-23T15:23:38;1.55;;;0.17;;
18857;SDS011;9558;50.178;8.370;2024-03-23T15:26:24;1.48;;;0.22;;
18857;SDS011;9558;50.178;8.370;2024-03-23T15:29:12;0.90;;;0.20;;
18857;SDS011;9558;50.178;8.370;2024-03-23T15:32:04;0.20;;;0.20;;
18857;SDS011;9558;50.178;8.370;2024-03-23T15:35:02;0.52;;;0.22;;
18857;SDS011;9558;50.178;8.370;2024-03-23T15:37:52;0.52;;;0.20;;
18857;SDS011;9558;50.178;8.370;2024-03-23T15:40:40;0.38;;;0.10;;
18857;SDS011;9558;50.178;8.370;2024-03-23T15:43:26;1.52;;;0.30;;
18857;SDS011;9558;50.178;8.370;2024-03-23T15:46:13;0.30;;;0.28;;
18857;SDS011;9558;50.178;8.370;2024-03-23T15:49:01;2.90;;;0.28;;
18857;SDS011;9558;50.178;8.370;2024-03-23T15:51:48;0.20;;;0.20;;
18857;SDS011;9558;50.178;8.370;2024-03-23T15:54:34;0.20;;;0.20;;
18857;SDS011;9558;50.178;8.370;2024-03-23T15:57:22;0.70;;;0.32;;
18857;SDS011;9558;50.178;8.370;2024-03-23T16:02:56;0.00;;;0.00;;
18857;SDS011;9558;50.178;8.370;2024-03-23T16:05:44;3.72;;;0.30;;
18857;SDS011;9558;50.178;8.370;2024-03-23T16:08:37;0.15;;;0.15;;
18857;SDS011;9558;50.178;8.370;2024-03-23T16:11:23;0.70;;;0.10;;
18857;SDS011;9558;50.178;8.370;2024-03-23T16:14:10;1.75;;;0.10;;
18857;SDS011;9558;50.178;8.370;2024-03-23T16:16:56;1.55;;;0.20;;
18857;SDS011;9558;50.178;8.370;2024-03-23T16:19:43;2.83;;;0.30;;
18857;SDS011;9558;50.178;8.370;2024-03-23T16:22:30;3.08;;;0.40;;
18857;SDS011;9558;50.178;8.370;2024-03-23T16:25:17;0.60;;;0.43;;
18857;SDS011;9558;50.178;8.370;2024-03-23T16:28:04;1.00;;;0.40;;
18857;SDS011;9558;50.178;8.370;2024-03-23T16:30:54;0.57;;;0.30;;
18857;SDS011;9558;50.178;8.370;2024-03-23T16:33:41;0.17;;;0.17;;
18857;SDS011;9558;50.178;8.370;2024-03-23T16:36:28;1.20;;;0.43;;
18857;SDS011;9558;50.178;8.370;2024-03-23T16:39:15;2.17;;;0.40;;
18857;SDS011;9558;50.178;8.370;2024-03-23T16:42:03;1.98;;;0.63;;
18857;SDS011;9558;50.178;8.370;2024-03-23T16:44:49;3.95;;;1.20;;
18857;SDS011;9558;50.178;8.370;2024-03-23T16:47:36;7.32;;;0.52;;
18857;SDS011;9558;50.178;8.370;2024-03-23T16:50:23;1.75;;;0.43;;
18857;SDS011;9558;50.178;8.370;2024-03-23T16:53:10;1.35;;;0.22;;
18857;SDS011;9558;50.178;8.370;2024-03-23T16:55:58;0.35;;;0.28;;
18857;SDS011;9558;50.178;8.370;2024-03-23T16:58:46;0.20;;;0.20;;
18857;SDS011;9558;50.178;8.370;2024-03-23T17:01:34;0.30;;;0.20;;
18857;SDS011;9558;50.178;8.370;2024-03-23T17:04:20;0.85;;;0.13;;
18857;SDS011;9558;50.178;8.370;2024-03-23T17:07:07;0.80;;;0.30;;
18857;SDS011;9558;50.178;8.370;2024-03-23T17:09:53;1.23;;;0.40;;
18857;SDS011;9558;50.178;8.370;2024-03-23T17:12:42;0.38;;;0.20;;
18857;SDS011;9558;50.178;8.370;2024-03-23T17:15:28;1.02;;;0.30;;
18857;SDS011;9558;50.178;8.370;2024-03-23T17:18:15;0.20;;;0.20;;
18857;SDS011;9558;50.178;8.370;2024-03-23T17:21:01;1.45;;;0.30;;
18857;SDS011;9558;50.178;8.370;2024-03-23T17:23:48;0.10;;;0.05;;
18857;SDS011;9558;50.178;8.370;2024-03-23T17:29:23;0.25;;;0.10;;
18857;SDS011;9558;50.178;8.370;2024-03-23T17:32:09;0.47;;;0.20;;
18857;SDS011;9558;50.178;8.370;2024-03-23T17:34:56;0.45;;;0.05;;
18857;SDS011;9558;50.178;8.370;2024-03-23T17:37:42;2.28;;;0.03;;
18857;SDS011;9558;50.178;8.370;2024-03-23T17:40:30;0.75;;;0.15;;
18857;SDS011;9558;50.178;8.370;2024-03-23T17:43:16;0.00;;;0.00;;
18857;SDS011;9558;50.178;8.370;2024-03-23T17:45:49;1.15;;;0.20;;
18857;SDS011;9558;50.178;8.370;2024-03-23T17:48:35;1.02;;;0.00;;
18857;SDS011;9558;50.178;8.370;2024-03-23T17:51:23;0.35;;;0.20;;
18857;SDS011;9558;50.178;8.370;2024-03-23T17:54:09;0.10;;;0.10;;
18857;SDS011;9558;50.178;8.370;2024-03-23T17:56:58;0.10;;;0.05;;
18857;SDS011;9558;50.178;8.370;2024-03-23T17:59:44;0.00;;;0.00;;
18857;SDS011;9558;50.178;8.370;2024-03-23T18:02:32;0.30;;;0.15;;
18857;SDS011;9558;50.178;8.370;2024-03-23T18:05:18;3.20;;;0.70;;
18857;SDS011;9558;50.178;8.370;2024-03-23T18:08:07;0.20;;;0.17;;
18857;SDS011;9558;50.178;8.370;2024-03-23T18:10:53;0.22;;;0.20;;
18857;SDS011;9558;50.178;8.370;2024-03-23T18:13:40;5.57;;;2.85;;
18857;SDS011;9558;50.178;8.370;2024-03-23T18:19:17;0.32;;;0.30;;